Flight Track Log - Related Links

Times and Time Zones

All times are in EDT time to prevent confusion due to time zone crossing. See the SWA1563 flight status page for this flight to view local times or setup timezone preferences in your user account.

Time Position Orientation Groundspeed Altitude Reporting Facility
EDT Latitude Longitude Course Direction KTS MPH feet Rate Location/Type
Sat 08:57:49 AM 31.9492 -101.9622 82° East 287 330 10,400  Level Fort Worth Center
Sat 08:58:49 AM 31.9611 -101.8672 82° East 293 337 13,200 3,050 Climbing Fort Worth Center
Sat 08:59:49 AM 31.9769 -101.7700 79° East 293 337 16,500 2,400 Climbing Fort Worth Center
Sat 09:00:00 AM 32.0500 -101.7062 90° East  Level FlightAware Approximate
Sat 09:00:49 AM 31.9869 -101.6653 84° East 298 343 18,000  Level Fort Worth Center
Sat 09:01:00 AM 32.0664 -101.5847 79° East  Level FlightAware Approximate
Sat 09:01:50 AM 32.0072 -101.5511 78° East 329 379 19,300  Level Fort Worth Center
Sat 09:02:00 AM 32.0765 -101.4621 82° East  Level FlightAware Approximate
Sat 09:02:49 AM 32.0261 -101.4269 80° East 364 419 21,300  Level Fort Worth Center
Sat 09:03:00 AM 32.0901 -101.3397 82° East  Level FlightAware Approximate
Sat 09:03:49 AM 32.0406 -101.2953 83° East 388 447 23,500  Level Fort Worth Center
Sat 09:04:49 AM 32.0611 -101.1686 79° East 393 452 25,500 1,700 Climbing Fort Worth Center
Sat 09:05:49 AM 32.0775 -101.0344 82° East 398 458 26,900 1,450 Climbing Fort Worth Center
Sat 09:06:49 AM 32.0939 -100.9028 82° East 403 464 28,400 1,350 Climbing Fort Worth Center
Sat 09:07:49 AM 32.0956 -100.7606 89° East 414 476 29,600 1,150 Climbing Fort Worth Center
Sat 09:08:49 AM 32.0972 -100.6161 89° East 427 491 30,700 1,150 Climbing Fort Worth Center
Sat 09:09:49 AM 32.1072 -100.4644 86° East 445 512 31,900 1,150 Climbing Fort Worth Center
Sat 09:10:49 AM 32.1131 -100.3150 87° East 451 519 33,000 550 Climbing Fort Worth Center
Sat 09:11:49 AM 32.1142 -100.1631 89° East 457 526 33,000  Level Fort Worth Center
Sat 09:12:49 AM 32.1181 -99.9914 88° East 462 532 33,000  Level Fort Worth Center
Sat 09:13:49 AM 32.1231 -99.8394 88° East 462 532 33,000  Level Fort Worth Center
Sat 09:14:49 AM 32.1258 -99.6850 89° East 462 532 33,000  Level Fort Worth Center
Sat 09:15:49 AM 32.1308 -99.5306 88° East 462 532 33,000  Level Fort Worth Center
Sat 09:16:49 AM 32.1333 -99.3711 89° East 473 544 33,000  Level Fort Worth Center
Sat 09:17:49 AM 32.1356 -99.2142 89° East 473 544 33,000  Level Fort Worth Center
Sat 09:18:49 AM 32.1397 -99.0622 88° East 473 544 33,000  Level Fort Worth Center
Sat 09:19:49 AM 32.1417 -98.9050 89° East 473 544 33,000 -550 Level Fort Worth Center
Sat 09:20:49 AM 32.1497 -98.7506 86° East 473 544 31,900 -2,250 Descending Fort Worth Center
Sat 09:21:49 AM 32.1806 -98.5989 76° East 473 544 28,500 -3,350 Descending Fort Worth Center
Sat 09:22:49 AM 32.2028 -98.4519 80° East 468 539 25,200 -2,950 Descending Fort Worth Center
Sat 09:23:49 AM 32.2308 -98.3122 77° East 452 520 22,600 -2,400 Descending Fort Worth Center
Sat 09:24:49 AM 32.2506 -98.1897 79° East 428 493 20,400 -2,300 Descending Fort Worth Center
Sat 09:25:49 AM 32.2744 -98.0497 79° East 405 466 18,000 -2,250 Descending Fort Worth Center
Sat 09:26:49 AM 32.2958 -97.9369 77° East 394 453 15,900 -2,250 Descending Fort Worth Center
Sat 09:27:49 AM 32.3169 -97.8042 79° East 370 426 13,500 -2,150 Descending Fort Worth Center
Sat 09:28:49 AM 32.3319 -97.7036 80° East 363 418 11,600 -1,250 Descending Fort Worth Center
Sat 09:29:49 AM 32.3886 -97.6028 56° Northeast 329 379 11,000 -250 Descending Fort Worth Center
Sat 09:30:49 AM 32.4472 -97.5339 45° Northeast 327 376 11,100 50 Climbing Fort Worth Center
Sat 09:31:49 AM 32.5222 -97.4431 46° Northeast 339 390 11,100 -50 Level Fort Worth Center
Sat 09:32:49 AM 32.5869 -97.3692 44° Northeast 350 403 11,000 -58 Descending Fort Worth Center
Sat 09:33:32 AM 32.6500 -97.3000 43° Northeast 366 421 11,000  Level Dallas / Fort Worth TRACON
Sat 09:33:49 AM 32.6622 -97.2753 60° Northeast 356 410 11,000  Level Fort Worth Center
Sat 09:34:49 AM 32.7164 -97.2083 46° Northeast 328 377 11,000  Level Fort Worth Center
Sat 09:35:49 AM 32.7725 -97.1689 31° Northeast 277 319 11,000 -1,150 Level Fort Worth Center
Sat 09:36:49 AM 32.8686 -97.1761 356° North 261 300 8,700 -2,200 Descending Fort Worth Center
Sat 09:37:49 AM 32.9081 -97.1189 51° Northeast 238 274 6,600 -1,748 Descending Fort Worth Center
Sat 09:38:32 AM 32.9333 -97.0500 66° East 229 264 5,700 -1,398 Descending Dallas / Fort Worth TRACON
Sat 09:39:32 AM 32.9333 -97.0000 90° East 193 222 4,200 -1,400 Descending Dallas / Fort Worth TRACON
Sat 09:40:32 AM 32.9167 -96.9500 112° Southeast 150 173 2,900 -1,250 Descending Dallas / Fort Worth TRACON
Sat 09:41:32 AM 32.9000 -96.9167 121° Southeast 130 150 1,700 -900 Descending Dallas / Fort Worth TRACON
Sat 09:42:32 AM 32.8667 -96.8833 140° Southeast 125 144 1,100 -600 Descending Dallas / Fort Worth TRACON
Sat 09:44:00 AM 32.8471 -96.8518 73° East  Level Estimated
Sat 09:51:00 AM 32.8471 -96.8518 73° East  Level Estimated

Login

Don't have an account? Register now (free) for customized features, flight alerts, and more!